Thunderstorms From: 25-05-2018 23:09 Until: 26-05-2018 15:00 warning for: Thunderstorms Level: Yellow info button

Although rather usual in this region, locally or potentially dangerous phenomena are expected. (such as local winds, summer thunderstorms, rising streams or high waves) Be aware and pay attention to the latest weather updates, especially if you carry out activities exposed to weather or close to a stream or shoreline. 


Meteo18 Weather Cam more information Meteo18 Weather Cam


warning for Thunderstorms more information blitzortung!


Rain radar more information rain snow radar


Visit our other weather sites:

Template documentation
and downloads

And another site



Weather Underground History page Text

Daily Summary for March 22, 2017 Units:  Both    English   Metric
« Previous Day
Next Day »
Daily Weekly Monthly Yearly Custom
  High: Low: Average:
Temperature: TemperatureC °F /  -17.8 °C 0.5 °F /  -17.5 °C 6.6 °F /  -14.1 °C
Dew Point: DewpointC °F /  -17.8 °C -0.1 °F /  -17.8 °C 3.3 °F /  -15.9 °C
Humidity: Humidity % 55 % 80 %
Wind Speed: WindSpeedKMH mph /  0 km/h - 3.2 mph /  5.1 km/h
Wind Gust: WindSpeedGustKMH mph /  0 km/h - -
Wind:- - SE
Pressure: PressurehPa in /  0 hPa 1008.4 in /  34144.4 hPa -
Precipitation: 0.3 in /  7.62 mm    
Historical Graphs
 
 
Tabular Data for March 22, 2017
Time Temperature Dew Point Pressure Wind Wind Speed Wind Gust Humidity Rainfall Rate (Hourly)
TemperatureC °F /  -17.8 °C DewpointC °F /  -17.8 °C PressurehPa in /  0 hPa Calm     Humidity % HourlyPrecipMM in /  0 mm
00:02 3.5 °F /  -15.8 °C 2.8 °F /  -16.2 °C 1016.1 in /  34405.1 hPa Calm   3.2 mph /  5.1 km/h 95 % 0.0 in /  0 mm
00:12 3.4 °F /  -15.9 °C 2.8 °F /  -16.2 °C 1016.1 in /  34405.1 hPa Calm     96 % 0.0 in /  0 mm
00:17 3.4 °F /  -15.9 °C 2.8 °F /  -16.2 °C 1016.1 in /  34405.1 hPa SW 3.2 mph /  5.1 km/h   96 % 0.0 in /  0 mm
00:22 3.5 °F /  -15.8 °C 2.9 °F /  -16.2 °C 1016.1 in /  34405.1 hPa WSW 3.2 mph /  5.1 km/h 4.8 mph /  7.7 km/h 96 % 0.0 in /  0 mm
00:32 3.6 °F /  -15.8 °C 3.0 °F /  -16.1 °C 1016.1 in /  34405.1 hPa SW 3.2 mph /  5.1 km/h 4.8 mph /  7.7 km/h 96 % 0.0 in /  0 mm
00:37 3.5 °F /  -15.8 °C 2.9 °F /  -16.2 °C 1016.1 in /  34405.1 hPa WSW 1.6 mph /  2.6 km/h 4.8 mph /  7.7 km/h 96 % 0.0 in /  0 mm
00:42 3.5 °F /  -15.8 °C 2.9 °F /  -16.2 °C 1016.1 in /  34405.1 hPa SW 1.6 mph /  2.6 km/h 4.8 mph /  7.7 km/h 96 % 0.0 in /  0 mm
00:47 3.4 °F /  -15.9 °C 2.8 °F /  -16.2 °C 1016.1 in /  34405.1 hPa Calm   3.2 mph /  5.1 km/h 96 % 0.0 in /  0 mm
00:52 3.3 °F /  -15.9 °C 2.6 °F /  -16.3 °C 1016.1 in /  34405.1 hPa Calm   3.2 mph /  5.1 km/h 95 % 0.0 in /  0 mm
00:57 3.2 °F /  -16 °C 2.5 °F /  -16.4 °C 1016.1 in /  34405.1 hPa Calm   3.2 mph /  5.1 km/h 95 % 0.0 in /  0 mm
01:02 3.1 °F /  -16.1 °C 2.4 °F /  -16.4 °C 1016.1 in /  34405.1 hPa Calm   3.2 mph /  5.1 km/h 95 % 0.0 in /  0 mm
01:07 3.0 °F /  -16.1 °C 2.3 °F /  -16.5 °C 1016.1 in /  34405.1 hPa Calm     95 % 0.0 in /  0 mm
01:17 2.8 °F /  -16.2 °C 2.2 °F /  -16.6 °C 1015.8 in /  34395 hPa Calm     96 % 0.3 in /  7.62 mm
01:22 2.8 °F /  -16.2 °C 2.2 °F /  -16.6 °C 1015.8 in /  34395 hPa Calm     96 % 0.3 in /  7.62 mm
01:32 2.8 °F /  -16.2 °C 2.2 °F /  -16.6 °C 1016.1 in /  34405.1 hPa Calm     96 % 0.3 in /  7.62 mm
01:42 2.6 °F /  -16.3 °C 2.0 °F /  -16.7 °C 1015.8 in /  34395 hPa Calm   1.6 mph /  2.6 km/h 96 % 0.3 in /  7.62 mm
01:52 2.2 °F /  -16.6 °C 1.6 °F /  -16.9 °C 1015.8 in /  34395 hPa Calm   1.6 mph /  2.6 km/h 96 % 0.3 in /  7.62 mm
01:57 2.2 °F /  -16.6 °C 1.6 °F /  -16.9 °C 1015.8 in /  34395 hPa SE 1.6 mph /  2.6 km/h 1.6 mph /  2.6 km/h 96 % 0.3 in /  7.62 mm
02:02 2.3 °F /  -16.5 °C 1.7 °F /  -16.8 °C 1015.8 in /  34395 hPa Calm   1.6 mph /  2.6 km/h 96 % 0.3 in /  7.62 mm
02:07 2.3 °F /  -16.5 °C 1.7 °F /  -16.8 °C 1015.8 in /  34395 hPa Calm   1.6 mph /  2.6 km/h 96 % 0.3 in /  7.62 mm
02:12 2.2 °F /  -16.6 °C 1.6 °F /  -16.9 °C 1015.5 in /  34384.8 hPa Calm   1.6 mph /  2.6 km/h 96 % 0.3 in /  7.62 mm
02:17 2.1 °F /  -16.6 °C 1.5 °F /  -16.9 °C 1015.5 in /  34384.8 hPa Calm     96 % 0.0 in /  0 mm
02:22 1.8 °F /  -16.8 °C 1.1 °F /  -17.2 °C 1015.5 in /  34384.8 hPa Calm     95 % 0.0 in /  0 mm
02:27 1.7 °F /  -16.8 °C 1.1 °F /  -17.2 °C 1015.5 in /  34384.8 hPa Calm     96 % 0.0 in /  0 mm
02:32 1.5 °F /  -16.9 °C 0.9 °F /  -17.3 °C 1015.5 in /  34384.8 hPa Calm     96 % 0.0 in /  0 mm
02:37 1.4 °F /  -17 °C 0.8 °F /  -17.3 °C 1015.1 in /  34371.3 hPa Calm     96 % 0.0 in /  0 mm
02:42 1.2 °F /  -17.1 °C 0.6 °F /  -17.4 °C 1015.1 in /  34371.3 hPa Calm     96 % 0.0 in /  0 mm
02:47 1.1 °F /  -17.2 °C 0.5 °F /  -17.5 °C 1015.1 in /  34371.3 hPa Calm     96 % 0.0 in /  0 mm
02:52 1.1 °F /  -17.2 °C 0.5 °F /  -17.5 °C 1015.1 in /  34371.3 hPa Calm     96 % 0.0 in /  0 mm
02:57 0.9 °F /  -17.3 °C 0.3 °F /  -17.6 °C 1014.8 in /  34361.1 hPa Calm     96 % 0.0 in /  0 mm
03:02 0.9 °F /  -17.3 °C 0.3 °F /  -17.6 °C 1014.8 in /  34361.1 hPa Calm     96 % 0.0 in /  0 mm
03:12 1.3 °F /  -17.1 °C 0.9 °F /  -17.3 °C 1014.8 in /  34361.1 hPa Calm     97 % 0.0 in /  0 mm
03:17 1.4 °F /  -17 °C 1.0 °F /  -17.2 °C 1014.8 in /  34361.1 hPa Calm     97 % 0.0 in /  0 mm
03:22 1.5 °F /  -16.9 °C 1.1 °F /  -17.2 °C 1014.8 in /  34361.1 hPa Calm     97 % 0.0 in /  0 mm
03:32 1.7 °F /  -16.8 °C 1.3 °F /  -17.1 °C 1014.4 in /  34347.6 hPa Calm     97 % 0.0 in /  0 mm
03:37 1.6 °F /  -16.9 °C 1.2 °F /  -17.1 °C 1014.4 in /  34347.6 hPa Calm     97 % 0.0 in /  0 mm
03:42 1.6 °F /  -16.9 °C 1.2 °F /  -17.1 °C 1014.4 in /  34347.6 hPa Calm     97 % 0.0 in /  0 mm
03:47 1.4 °F /  -17 °C 0.8 °F /  -17.3 °C 1014.4 in /  34347.6 hPa Calm     96 % 0.0 in /  0 mm
03:52 1.4 °F /  -17 °C 1.0 °F /  -17.2 °C 1014.4 in /  34347.6 hPa Calm     97 % 0.0 in /  0 mm
03:57 1.4 °F /  -17 °C 1.0 °F /  -17.2 °C 1014.4 in /  34347.6 hPa Calm     97 % 0.0 in /  0 mm
04:02 1.3 °F /  -17.1 °C 0.9 °F /  -17.3 °C 1014.4 in /  34347.6 hPa Calm     97 % 0.0 in /  0 mm
04:07 0.9 °F /  -17.3 °C 0.3 °F /  -17.6 °C 1014.4 in /  34347.6 hPa Calm   3.2 mph /  5.1 km/h 96 % 0.0 in /  0 mm
04:12 0.8 °F /  -17.3 °C 0.2 °F /  -17.7 °C 1014.1 in /  34337.4 hPa Calm   3.2 mph /  5.1 km/h 96 % 0.0 in /  0 mm
04:17 1.1 °F /  -17.2 °C 0.7 °F /  -17.4 °C 1014.1 in /  34337.4 hPa Calm   1.6 mph /  2.6 km/h 97 % 0.0 in /  0 mm
04:22 1.1 °F /  -17.2 °C 0.7 °F /  -17.4 °C 1014.4 in /  34347.6 hPa Calm   1.6 mph /  2.6 km/h 97 % 0.0 in /  0 mm
04:32 1.0 °F /  -17.2 °C 0.6 °F /  -17.4 °C 1014.4 in /  34347.6 hPa Calm     97 % 0.0 in /  0 mm
04:37 0.8 °F /  -17.3 °C 0.2 °F /  -17.7 °C 1014.1 in /  34337.4 hPa Calm     96 % 0.0 in /  0 mm
04:42 0.9 °F /  -17.3 °C 0.5 °F /  -17.5 °C 1014.1 in /  34337.4 hPa Calm     97 % 0.0 in /  0 mm
04:47 1.1 °F /  -17.2 °C 0.7 °F /  -17.4 °C 1014.1 in /  34337.4 hPa Calm     97 % 0.0 in /  0 mm
04:52 1.1 °F /  -17.2 °C 0.7 °F /  -17.4 °C 1014.1 in /  34337.4 hPa Calm     97 % 0.0 in /  0 mm
04:57 1.1 °F /  -17.2 °C 0.7 °F /  -17.4 °C 1014.1 in /  34337.4 hPa Calm     97 % 0.0 in /  0 mm
05:02 1.1 °F /  -17.2 °C 0.7 °F /  -17.4 °C 1013.8 in /  34327.3 hPa Calm     97 % 0.0 in /  0 mm
05:07 1.1 °F /  -17.2 °C 0.7 °F /  -17.4 °C 1013.8 in /  34327.3 hPa Calm     97 % 0.0 in /  0 mm
05:12 0.8 °F /  -17.3 °C 0.2 °F /  -17.7 °C 1013.8 in /  34327.3 hPa Calm     96 % 0.0 in /  0 mm
05:22 0.5 °F /  -17.5 °C -0.1 °F /  -17.8 °C 1013.8 in /  34327.3 hPa Calm     96 % 0.0 in /  0 mm
05:32 0.7 °F /  -17.4 °C 0.3 °F /  -17.6 °C 1013.8 in /  34327.3 hPa Calm     97 % 0.0 in /  0 mm
05:37 0.6 °F /  -17.4 °C 0.2 °F /  -17.7 °C 1013.8 in /  34327.3 hPa Calm     97 % 0.0 in /  0 mm
05:42 0.6 °F /  -17.4 °C 0.2 °F /  -17.7 °C 1013.8 in /  34327.3 hPa Calm     97 % 0.0 in /  0 mm
05:52 0.9 °F /  -17.3 °C 0.5 °F /  -17.5 °C 1013.8 in /  34327.3 hPa Calm     97 % 0.0 in /  0 mm
06:02 1.0 °F /  -17.2 °C 0.6 °F /  -17.4 °C 1013.4 in /  34313.7 hPa Calm     97 % 0.0 in /  0 mm
06:07 0.9 °F /  -17.3 °C 0.5 °F /  -17.5 °C 1013.4 in /  34313.7 hPa Calm     97 % 0.0 in /  0 mm
06:12 0.7 °F /  -17.4 °C 0.3 °F /  -17.6 °C 1013.4 in /  34313.7 hPa Calm     97 % 0.0 in /  0 mm
06:17 0.6 °F /  -17.4 °C 0.2 °F /  -17.7 °C 1013.4 in /  34313.7 hPa Calm     97 % 0.0 in /  0 mm
06:22 0.7 °F /  -17.4 °C 0.3 °F /  -17.6 °C 1013.4 in /  34313.7 hPa Calm     97 % 0.0 in /  0 mm
06:32 0.6 °F /  -17.4 °C 0.2 °F /  -17.7 °C 1013.4 in /  34313.7 hPa Calm     97 % 0.0 in /  0 mm
06:37 0.7 °F /  -17.4 °C 0.3 °F /  -17.6 °C 1013.4 in /  34313.7 hPa Calm     97 % 0.0 in /  0 mm
06:42 0.8 °F /  -17.3 °C 0.4 °F /  -17.6 °C 1013.4 in /  34313.7 hPa Calm     97 % 0.0 in /  0 mm
06:47 0.9 °F /  -17.3 °C 0.5 °F /  -17.5 °C 1013.4 in /  34313.7 hPa Calm     97 % 0.0 in /  0 mm
06:52 0.9 °F /  -17.3 °C 0.5 °F /  -17.5 °C 1013.4 in /  34313.7 hPa Calm     97 % 0.0 in /  0 mm
06:57 1.0 °F /  -17.2 °C 0.6 °F /  -17.4 °C 1013.1 in /  34303.6 hPa Calm     97 % 0.0 in /  0 mm
07:02 1.1 °F /  -17.2 °C 0.7 °F /  -17.4 °C 1013.4 in /  34313.7 hPa Calm     97 % 0.0 in /  0 mm
07:12 1.3 °F /  -17.1 °C 0.9 °F /  -17.3 °C 1013.1 in /  34303.6 hPa Calm     97 % 0.0 in /  0 mm
07:22 1.4 °F /  -17 °C 1.0 °F /  -17.2 °C 1013.4 in /  34313.7 hPa Calm     97 % 0.0 in /  0 mm
07:32 1.5 °F /  -16.9 °C 1.1 °F /  -17.2 °C 1013.1 in /  34303.6 hPa Calm     97 % 0.0 in /  0 mm
07:42 2.2 °F /  -16.6 °C 1.8 °F /  -16.8 °C 1013.1 in /  34303.6 hPa Calm     97 % 0.0 in /  0 mm
07:47 2.3 °F /  -16.5 °C 1.9 °F /  -16.7 °C 1013.1 in /  34303.6 hPa Calm     97 % 0.0 in /  0 mm
07:52 2.7 °F /  -16.3 °C 2.3 °F /  -16.5 °C 1013.1 in /  34303.6 hPa SE 1.6 mph /  2.6 km/h   97 % 0.0 in /  0 mm
07:57 2.9 °F /  -16.2 °C 2.5 °F /  -16.4 °C 1013.1 in /  34303.6 hPa SSE 3.2 mph /  5.1 km/h 3.2 mph /  5.1 km/h 97 % 0.0 in /  0 mm
08:02 3.2 °F /  -16 °C 2.8 °F /  -16.2 °C 1013.1 in /  34303.6 hPa Calm   3.2 mph /  5.1 km/h 97 % 0.0 in /  0 mm
08:07 3.3 °F /  -15.9 °C 2.9 °F /  -16.2 °C 1013.1 in /  34303.6 hPa East 1.6 mph /  2.6 km/h 6.4 mph /  10.3 km/h 97 % 0.0 in /  0 mm
08:12 3.7 °F /  -15.7 °C 3.3 °F /  -15.9 °C 1013.1 in /  34303.6 hPa Calm   6.4 mph /  10.3 km/h 97 % 0.0 in /  0 mm
08:17 3.7 °F /  -15.7 °C 3.1 °F /  -16.1 °C 1013.1 in /  34303.6 hPa ESE 3.2 mph /  5.1 km/h 3.2 mph /  5.1 km/h 96 % 0.0 in /  0 mm
08:22 3.9 °F /  -15.6 °C 3.3 °F /  -15.9 °C 1013.1 in /  34303.6 hPa Calm   3.2 mph /  5.1 km/h 96 % 0.0 in /  0 mm
08:32 3.8 °F /  -15.7 °C 3.1 °F /  -16.1 °C 1013.1 in /  34303.6 hPa SE 1.6 mph /  2.6 km/h 6.4 mph /  10.3 km/h 95 % 0.0 in /  0 mm
08:42 3.9 °F /  -15.6 °C 3.2 °F /  -16 °C 1013.1 in /  34303.6 hPa SE 3.2 mph /  5.1 km/h 4.8 mph /  7.7 km/h 95 % 0.0 in /  0 mm
08:52 4.5 °F /  -15.3 °C 3.8 °F /  -15.7 °C 1012.8 in /  34293.4 hPa Calm   8.0 mph /  12.9 km/h 95 % 0.0 in /  0 mm
09:02 4.9 °F /  -15.1 °C 3.9 °F /  -15.6 °C 1012.8 in /  34293.4 hPa SSE 3.2 mph /  5.1 km/h 6.4 mph /  10.3 km/h 93 % 0.0 in /  0 mm
09:07 5.2 °F /  -14.9 °C 4.2 °F /  -15.4 °C 1012.8 in /  34293.4 hPa ESE 4.8 mph /  7.7 km/h 6.4 mph /  10.3 km/h 93 % 0.0 in /  0 mm
09:17 5.7 °F /  -14.6 °C 4.5 °F /  -15.3 °C 1012.8 in /  34293.4 hPa SSE 4.8 mph /  7.7 km/h 8.0 mph /  12.9 km/h 92 % 0.0 in /  0 mm
09:22 5.7 °F /  -14.6 °C 4.2 °F /  -15.4 °C 1013.1 in /  34303.6 hPa South 3.2 mph /  5.1 km/h 8.0 mph /  12.9 km/h 90 % 0.0 in /  0 mm
09:32 6.1 °F /  -14.4 °C 4.4 °F /  -15.3 °C 1012.8 in /  34293.4 hPa East 9.7 mph /  15.6 km/h 9.7 mph /  15.6 km/h 89 % 0.0 in /  0 mm
09:37 6.2 °F /  -14.3 °C 4.4 °F /  -15.3 °C 1012.8 in /  34293.4 hPa SE 3.2 mph /  5.1 km/h 9.7 mph /  15.6 km/h 88 % 0.0 in /  0 mm
09:42 6.4 °F /  -14.2 °C 4.7 °F /  -15.2 °C 1012.8 in /  34293.4 hPa SE 3.2 mph /  5.1 km/h 9.7 mph /  15.6 km/h 89 % 0.0 in /  0 mm
09:47 6.6 °F /  -14.1 °C 4.6 °F /  -15.2 °C 1012.8 in /  34293.4 hPa SE 3.2 mph /  5.1 km/h 11.3 mph /  18.2 km/h 87 % 0.0 in /  0 mm
09:52 7.1 °F /  -13.8 °C 5.4 °F /  -14.8 °C 1012.8 in /  34293.4 hPa ESE 8.0 mph /  12.9 km/h 11.3 mph /  18.2 km/h 89 % 0.0 in /  0 mm
10:02 7.2 °F /  -13.8 °C 5.0 °F /  -15 °C 1012.8 in /  34293.4 hPa SSE 1.6 mph /  2.6 km/h 11.3 mph /  18.2 km/h 86 % 0.0 in /  0 mm
10:07 7.3 °F /  -13.7 °C 4.8 °F /  -15.1 °C 1012.8 in /  34293.4 hPa South 4.8 mph /  7.7 km/h 12.9 mph /  20.8 km/h 84 % 0.0 in /  0 mm
10:17 7.4 °F /  -13.7 °C 4.9 °F /  -15.1 °C 1012.8 in /  34293.4 hPa Calm   12.9 mph /  20.8 km/h 84 % 0.0 in /  0 mm
10:22 7.6 °F /  -13.6 °C 5.4 °F /  -14.8 °C 1012.8 in /  34293.4 hPa SE 3.2 mph /  5.1 km/h 12.9 mph /  20.8 km/h 86 % 0.0 in /  0 mm
10:32 7.9 °F /  -13.4 °C 5.5 °F /  -14.7 °C 1012.8 in /  34293.4 hPa SSE 4.8 mph /  7.7 km/h 12.9 mph /  20.8 km/h 85 % 0.0 in /  0 mm
10:42 8.1 °F /  -13.3 °C 4.9 °F /  -15.1 °C 1012.4 in /  34279.9 hPa East 6.4 mph /  10.3 km/h 14.5 mph /  23.3 km/h 80 % 0.0 in /  0 mm
10:47 8.2 °F /  -13.2 °C 5.3 °F /  -14.8 °C 1012.4 in /  34279.9 hPa SE 9.7 mph /  15.6 km/h 14.5 mph /  23.3 km/h 82 % 0.0 in /  0 mm
10:52 8.0 °F /  -13.3 °C 4.9 °F /  -15.1 °C 1012.4 in /  34279.9 hPa SE 4.8 mph /  7.7 km/h 14.5 mph /  23.3 km/h 81 % 0.0 in /  0 mm
10:57 8.1 °F /  -13.3 °C 5.6 °F /  -14.7 °C 1012.4 in /  34279.9 hPa South 1.6 mph /  2.6 km/h 16.1 mph /  25.9 km/h 84 % 0.0 in /  0 mm
11:02 8.4 °F /  -13.1 °C 5.3 °F /  -14.8 °C 1012.4 in /  34279.9 hPa ESE 4.8 mph /  7.7 km/h 16.1 mph /  25.9 km/h 81 % 0.0 in /  0 mm
11:07 8.2 °F /  -13.2 °C 5.0 °F /  -15 °C 1012.4 in /  34279.9 hPa SSE 4.8 mph /  7.7 km/h 14.5 mph /  23.3 km/h 80 % 0.0 in /  0 mm
11:12 8.2 °F /  -13.2 °C 5.0 °F /  -15 °C 1012.4 in /  34279.9 hPa SSE 3.2 mph /  5.1 km/h 14.5 mph /  23.3 km/h 80 % 0.0 in /  0 mm
11:17 8.4 °F /  -13.1 °C 5.2 °F /  -14.9 °C 1012.1 in /  34269.7 hPa SSW 6.4 mph /  10.3 km/h 17.7 mph /  28.5 km/h 80 % 0.0 in /  0 mm
11:22 8.7 °F /  -12.9 °C 5.6 °F /  -14.7 °C 1012.1 in /  34269.7 hPa SSE 8.0 mph /  12.9 km/h 17.7 mph /  28.5 km/h 81 % 0.0 in /  0 mm
11:32 8.7 °F /  -12.9 °C 5.4 °F /  -14.8 °C 1012.1 in /  34269.7 hPa SSE 4.8 mph /  7.7 km/h 16.1 mph /  25.9 km/h 80 % 0.0 in /  0 mm
11:42 8.9 °F /  -12.8 °C 5.8 °F /  -14.6 °C 1012.1 in /  34269.7 hPa SE 4.8 mph /  7.7 km/h 14.5 mph /  23.3 km/h 81 % 0.0 in /  0 mm
11:52 8.4 °F /  -13.1 °C 5.3 °F /  -14.8 °C 1012.1 in /  34269.7 hPa SE 3.2 mph /  5.1 km/h 16.1 mph /  25.9 km/h 81 % 0.0 in /  0 mm
12:02 8.9 °F /  -12.8 °C 6.2 °F /  -14.3 °C 1012.1 in /  34269.7 hPa South 3.2 mph /  5.1 km/h 22.5 mph /  36.2 km/h 83 % 0.0 in /  0 mm
12:07 9.2 °F /  -12.7 °C 6.3 °F /  -14.3 °C 1011.7 in /  34256.2 hPa SE 6.4 mph /  10.3 km/h 19.3 mph /  31.1 km/h 82 % 0.0 in /  0 mm
12:12 9.5 °F /  -12.5 °C 5.9 °F /  -14.5 °C 1011.7 in /  34256.2 hPa SSE 3.2 mph /  5.1 km/h 19.3 mph /  31.1 km/h 78 % 0.0 in /  0 mm
12:17 9.4 °F /  -12.6 °C 5.6 °F /  -14.7 °C 1011.7 in /  34256.2 hPa SW 1.6 mph /  2.6 km/h 12.9 mph /  20.8 km/h 77 % 0.0 in /  0 mm
12:22 9.7 °F /  -12.4 °C 6.0 °F /  -14.4 °C 1011.4 in /  34246 hPa ESE 4.8 mph /  7.7 km/h 19.3 mph /  31.1 km/h 78 % 0.0 in /  0 mm
12:27 10.0 °F /  -12.2 °C 6.2 °F /  -14.3 °C 1011.4 in /  34246 hPa SE 8.0 mph /  12.9 km/h 19.3 mph /  31.1 km/h 77 % 0.0 in /  0 mm
12:32 9.9 °F /  -12.3 °C 5.7 °F /  -14.6 °C 1011.4 in /  34246 hPa East 6.4 mph /  10.3 km/h 19.3 mph /  31.1 km/h 75 % 0.0 in /  0 mm
12:37 9.8 °F /  -12.3 °C 5.6 °F /  -14.7 °C 1011.4 in /  34246 hPa ESE 6.4 mph /  10.3 km/h 19.3 mph /  31.1 km/h 75 % 0.0 in /  0 mm
12:42 9.8 °F /  -12.3 °C 5.4 °F /  -14.8 °C 1011.4 in /  34246 hPa SE 3.2 mph /  5.1 km/h 17.7 mph /  28.5 km/h 74 % 0.0 in /  0 mm
12:47 9.9 °F /  -12.3 °C 5.5 °F /  -14.7 °C 1011.4 in /  34246 hPa SE 1.6 mph /  2.6 km/h 17.7 mph /  28.5 km/h 74 % 0.0 in /  0 mm
12:52 9.9 °F /  -12.3 °C 5.3 °F /  -14.8 °C 1011.1 in /  34235.8 hPa East 4.8 mph /  7.7 km/h 17.7 mph /  28.5 km/h 73 % 0.0 in /  0 mm
12:57 9.8 °F /  -12.3 °C 4.6 °F /  -15.2 °C 1011.1 in /  34235.8 hPa East 4.8 mph /  7.7 km/h 19.3 mph /  31.1 km/h 70 % 0.0 in /  0 mm
13:02 10.1 °F /  -12.2 °C 4.9 °F /  -15.1 °C 1011.1 in /  34235.8 hPa SSE 6.4 mph /  10.3 km/h 19.3 mph /  31.1 km/h 70 % 0.0 in /  0 mm
13:12 10.7 °F /  -11.8 °C 5.0 °F /  -15 °C 1011.1 in /  34235.8 hPa Calm   19.3 mph /  31.1 km/h 68 % 0.0 in /  0 mm
13:17 10.8 °F /  -11.8 °C 4.7 °F /  -15.2 °C 1011.1 in /  34235.8 hPa SE 8.0 mph /  12.9 km/h 17.7 mph /  28.5 km/h 66 % 0.0 in /  0 mm
13:22 10.9 °F /  -11.7 °C 4.6 °F /  -15.2 °C 1011.1 in /  34235.8 hPa SSE 6.4 mph /  10.3 km/h 17.7 mph /  28.5 km/h 65 % 0.0 in /  0 mm
13:27 11.6 °F /  -11.3 °C 5.9 °F /  -14.5 °C 1010.7 in /  34222.3 hPa SSE 4.8 mph /  7.7 km/h 17.7 mph /  28.5 km/h 68 % 0.0 in /  0 mm
13:37 11.4 °F /  -11.4 °C 4.6 °F /  -15.2 °C 1010.7 in /  34222.3 hPa SSE 9.7 mph /  15.6 km/h 20.9 mph /  33.6 km/h 63 % 0.0 in /  0 mm
13:42 11.6 °F /  -11.3 °C 4.8 °F /  -15.1 °C 1010.4 in /  34212.1 hPa South 12.9 mph /  20.8 km/h 20.9 mph /  33.6 km/h 63 % 0.0 in /  0 mm
13:52 11.6 °F /  -11.3 °C 3.4 °F /  -15.9 °C 1010.4 in /  34212.1 hPa SSE 6.4 mph /  10.3 km/h 24.1 mph /  38.8 km/h 57 % 0.0 in /  0 mm
13:57 11.7 °F /  -11.3 °C 4.4 °F /  -15.3 °C 1010.4 in /  34212.1 hPa SSE 9.7 mph /  15.6 km/h 24.1 mph /  38.8 km/h 61 % 0.0 in /  0 mm
14:02 11.8 °F /  -11.2 °C 3.8 °F /  -15.7 °C 1010.4 in /  34212.1 hPa ESE 9.7 mph /  15.6 km/h 24.1 mph /  38.8 km/h 58 % 0.0 in /  0 mm
14:07 11.9 °F /  -11.2 °C 4.1 °F /  -15.5 °C 1010.4 in /  34212.1 hPa SSW 6.4 mph /  10.3 km/h 20.9 mph /  33.6 km/h 59 % 0.0 in /  0 mm
14:12 12.1 °F /  -11.1 °C 4.1 °F /  -15.5 °C 1010.4 in /  34212.1 hPa SSE 14.5 mph /  23.3 km/h 20.9 mph /  33.6 km/h 58 % 0.0 in /  0 mm
14:17 12.2 °F /  -11 °C 3.4 °F /  -15.9 °C 1010.4 in /  34212.1 hPa SW 14.5 mph /  23.3 km/h 16.1 mph /  25.9 km/h 55 % 0.0 in /  0 mm
14:22 11.8 °F /  -11.2 °C 3.0 °F /  -16.1 °C 1010.4 in /  34212.1 hPa SE 8.0 mph /  12.9 km/h 16.1 mph /  25.9 km/h 55 % 0.0 in /  0 mm
14:32 11.9 °F /  -11.2 °C 3.1 °F /  -16.1 °C 1010.0 in /  34198.6 hPa SSE 8.0 mph /  12.9 km/h 17.7 mph /  28.5 km/h 55 % 0.0 in /  0 mm
14:37 12.1 °F /  -11.1 °C 4.3 °F /  -15.4 °C 1010.0 in /  34198.6 hPa South 3.2 mph /  5.1 km/h 16.1 mph /  25.9 km/h 59 % 0.0 in /  0 mm
14:42 12.4 °F /  -10.9 °C 4.1 °F /  -15.5 °C 1010.0 in /  34198.6 hPa SSW 12.9 mph /  20.8 km/h 16.1 mph /  25.9 km/h 57 % 0.0 in /  0 mm
14:52 11.9 °F /  -11.2 °C 3.4 °F /  -15.9 °C 1010.0 in /  34198.6 hPa SE 3.2 mph /  5.1 km/h 17.7 mph /  28.5 km/h 56 % 0.0 in /  0 mm
14:57 12.3 °F /  -10.9 °C 4.3 °F /  -15.4 °C 1009.7 in /  34188.4 hPa SSW 4.8 mph /  7.7 km/h 16.1 mph /  25.9 km/h 58 % 0.0 in /  0 mm
15:02 12.2 °F /  -11 °C 3.4 °F /  -15.9 °C 1009.7 in /  34188.4 hPa ESE 4.8 mph /  7.7 km/h 16.1 mph /  25.9 km/h 55 % 0.0 in /  0 mm
15:12 12.5 °F /  -10.8 °C 4.5 °F /  -15.3 °C 1009.7 in /  34188.4 hPa SSE 8.0 mph /  12.9 km/h 16.1 mph /  25.9 km/h 58 % 0.0 in /  0 mm
15:17 12.7 °F /  -10.7 °C 4.4 °F /  -15.3 °C 1009.7 in /  34188.4 hPa SSE 9.7 mph /  15.6 km/h 16.1 mph /  25.9 km/h 57 % 0.0 in /  0 mm
15:22 12.5 °F /  -10.8 °C 3.7 °F /  -15.7 °C 1009.4 in /  34178.3 hPa SE 9.7 mph /  15.6 km/h 16.1 mph /  25.9 km/h 55 % 0.0 in /  0 mm
15:32 12.3 °F /  -10.9 °C 4.5 °F /  -15.3 °C 1009.4 in /  34178.3 hPa SSE 3.2 mph /  5.1 km/h 16.1 mph /  25.9 km/h 59 % 0.0 in /  0 mm
15:42 12.6 °F /  -10.8 °C 5.0 °F /  -15 °C 1009.4 in /  34178.3 hPa SSW 8.0 mph /  12.9 km/h 17.7 mph /  28.5 km/h 60 % 0.0 in /  0 mm
15:47 12.8 °F /  -10.7 °C 4.7 °F /  -15.2 °C 1009.4 in /  34178.3 hPa East 3.2 mph /  5.1 km/h 14.5 mph /  23.3 km/h 58 % 0.0 in /  0 mm
15:52 12.8 °F /  -10.7 °C 4.7 °F /  -15.2 °C 1009.4 in /  34178.3 hPa SE 11.3 mph /  18.2 km/h 14.5 mph /  23.3 km/h 58 % 0.0 in /  0 mm
16:02 12.2 °F /  -11 °C 3.7 °F /  -15.7 °C 1009.4 in /  34178.3 hPa ESE 9.7 mph /  15.6 km/h 12.9 mph /  20.8 km/h 56 % 0.0 in /  0 mm
16:12 12.4 °F /  -10.9 °C 4.4 °F /  -15.3 °C 1009.4 in /  34178.3 hPa South 3.2 mph /  5.1 km/h 12.9 mph /  20.8 km/h 58 % 0.0 in /  0 mm
16:17 12.6 °F /  -10.8 °C 4.8 °F /  -15.1 °C 1009.4 in /  34178.3 hPa ESE 6.4 mph /  10.3 km/h 14.5 mph /  23.3 km/h 59 % 0.0 in /  0 mm
16:22 12.3 °F /  -10.9 °C 5.0 °F /  -15 °C 1009.4 in /  34178.3 hPa SE 11.3 mph /  18.2 km/h 14.5 mph /  23.3 km/h 61 % 0.0 in /  0 mm
16:32 12.2 °F /  -11 °C 5.6 °F /  -14.7 °C 1009.0 in /  34164.7 hPa SE 6.4 mph /  10.3 km/h 20.9 mph /  33.6 km/h 64 % 0.0 in /  0 mm
16:42 12.0 °F /  -11.1 °C 5.6 °F /  -14.7 °C 1009.0 in /  34164.7 hPa East 8.0 mph /  12.9 km/h 19.3 mph /  31.1 km/h 65 % 0.0 in /  0 mm
16:47 11.9 °F /  -11.2 °C 5.3 °F /  -14.8 °C 1009.0 in /  34164.7 hPa SE 6.4 mph /  10.3 km/h 16.1 mph /  25.9 km/h 64 % 0.0 in /  0 mm
16:52 11.8 °F /  -11.2 °C 5.4 °F /  -14.8 °C 1009.0 in /  34164.7 hPa ESE 4.8 mph /  7.7 km/h 16.1 mph /  25.9 km/h 65 % 0.0 in /  0 mm
16:57 11.7 °F /  -11.3 °C 4.9 °F /  -15.1 °C 1008.7 in /  34154.6 hPa ESE 12.9 mph /  20.8 km/h 17.7 mph /  28.5 km/h 63 % 0.0 in /  0 mm
17:02 11.7 °F /  -11.3 °C 4.9 °F /  -15.1 °C 1008.7 in /  34154.6 hPa East 12.9 mph /  20.8 km/h 17.7 mph /  28.5 km/h 63 % 0.0 in /  0 mm
17:12 11.8 °F /  -11.2 °C 5.0 °F /  -15 °C 1008.7 in /  34154.6 hPa East 4.8 mph /  7.7 km/h 17.7 mph /  28.5 km/h 63 % 0.0 in /  0 mm
17:17 11.7 °F /  -11.3 °C 4.9 °F /  -15.1 °C 1008.7 in /  34154.6 hPa East 14.5 mph /  23.3 km/h 16.1 mph /  25.9 km/h 63 % 0.0 in /  0 mm
17:22 11.7 °F /  -11.3 °C 5.3 °F /  -14.8 °C 1008.7 in /  34154.6 hPa SE 11.3 mph /  18.2 km/h 16.1 mph /  25.9 km/h 65 % 0.0 in /  0 mm
17:27 12.0 °F /  -11.1 °C 5.2 °F /  -14.9 °C 1008.7 in /  34154.6 hPa East 6.4 mph /  10.3 km/h 16.1 mph /  25.9 km/h 63 % 0.0 in /  0 mm
17:32 12.2 °F /  -11 °C 5.6 °F /  -14.7 °C 1008.7 in /  34154.6 hPa ESE 6.4 mph /  10.3 km/h 16.1 mph /  25.9 km/h 64 % 0.0 in /  0 mm
17:42 11.9 °F /  -11.2 °C 4.8 °F /  -15.1 °C 1008.4 in /  34144.4 hPa East 17.7 mph /  28.5 km/h 17.7 mph /  28.5 km/h 62 % 0.0 in /  0 mm
17:47 11.8 °F /  -11.2 °C 4.8 °F /  -15.1 °C 1008.4 in /  34144.4 hPa ESE 16.1 mph /  25.9 km/h 20.9 mph /  33.6 km/h 62 % 0.0 in /  0 mm
17:52 11.8 °F /  -11.2 °C 4.8 °F /  -15.1 °C 1008.4 in /  34144.4 hPa ESE 4.8 mph /  7.7 km/h 20.9 mph /  33.6 km/h 62 % 0.0 in /  0 mm
17:57 11.7 °F /  -11.3 °C 4.7 °F /  -15.2 °C 1008.7 in /  34154.6 hPa SSE 6.4 mph /  10.3 km/h 20.9 mph /  33.6 km/h 62 % 0.0 in /  0 mm
18:02 11.5 °F /  -11.4 °C 4.7 °F /  -15.2 °C 1008.7 in /  34154.6 hPa East 17.7 mph /  28.5 km/h 20.9 mph /  33.6 km/h 63 % 0.0 in /  0 mm
18:12 11.2 °F /  -11.6 °C 4.6 °F /  -15.2 °C 1008.7 in /  34154.6 hPa East 6.4 mph /  10.3 km/h 17.7 mph /  28.5 km/h 64 % 0.0 in /  0 mm
18:17 11.0 °F /  -11.7 °C 4.9 °F /  -15.1 °C 1008.7 in /  34154.6 hPa NE 4.8 mph /  7.7 km/h 17.7 mph /  28.5 km/h 66 % 0.0 in /  0 mm
18:22 10.9 °F /  -11.7 °C 4.8 °F /  -15.1 °C 1008.7 in /  34154.6 hPa ESE 3.2 mph /  5.1 km/h 9.7 mph /  15.6 km/h 66 % 0.0 in /  0 mm
18:27 10.8 °F /  -11.8 °C 4.7 °F /  -15.2 °C 1008.7 in /  34154.6 hPa East 4.8 mph /  7.7 km/h 9.7 mph /  15.6 km/h 66 % 0.0 in /  0 mm
18:32 10.9 °F /  -11.7 °C 4.8 °F /  -15.1 °C 1008.4 in /  34144.4 hPa East 6.4 mph /  10.3 km/h 9.7 mph /  15.6 km/h 66 % 0.0 in /  0 mm
18:37 10.9 °F /  -11.7 °C 4.6 °F /  -15.2 °C 1008.4 in /  34144.4 hPa ENE 6.4 mph /  10.3 km/h 9.7 mph /  15.6 km/h 65 % 0.0 in /  0 mm
18:42 10.8 °F /  -11.8 °C 4.5 °F /  -15.3 °C 1008.4 in /  34144.4 hPa ESE 6.4 mph /  10.3 km/h 9.7 mph /  15.6 km/h 65 % 0.0 in /  0 mm
18:52 10.8 °F /  -11.8 °C 4.0 °F /  -15.6 °C 1008.4 in /  34144.4 hPa East 8.0 mph /  12.9 km/h 12.9 mph /  20.8 km/h 63 % 0.0 in /  0 mm
18:57 10.7 °F /  -11.8 °C 4.2 °F /  -15.4 °C 1008.4 in /  34144.4 hPa East 9.7 mph /  15.6 km/h 14.5 mph /  23.3 km/h 64 % 0.0 in /  0 mm
19:02 10.6 °F /  -11.9 °C 4.1 °F /  -15.5 °C 1008.4 in /  34144.4 hPa East 9.7 mph /  15.6 km/h 14.5 mph /  23.3 km/h 64 % 0.0 in /  0 mm
19:12 10.3 °F /  -12.1 °C 3.8 °F /  -15.7 °C 1008.4 in /  34144.4 hPa East 8.0 mph /  12.9 km/h 14.5 mph /  23.3 km/h 64 % 0.0 in /  0 mm
19:17 10.3 °F /  -12.1 °C 3.8 °F /  -15.7 °C 1008.4 in /  34144.4 hPa East 4.8 mph /  7.7 km/h 12.9 mph /  20.8 km/h 64 % 0.0 in /  0 mm
19:22 10.2 °F /  -12.1 °C 3.5 °F /  -15.8 °C 1008.4 in /  34144.4 hPa East 3.2 mph /  5.1 km/h 12.9 mph /  20.8 km/h 63 % 0.0 in /  0 mm
19:27 10.0 °F /  -12.2 °C 3.7 °F /  -15.7 °C 1008.4 in /  34144.4 hPa ESE 1.6 mph /  2.6 km/h 11.3 mph /  18.2 km/h 65 % 0.0 in /  0 mm
19:32 9.7 °F /  -12.4 °C 3.9 °F /  -15.6 °C 1008.4 in /  34144.4 hPa East 1.6 mph /  2.6 km/h 11.3 mph /  18.2 km/h 67 % 0.0 in /  0 mm
19:37 9.5 °F /  -12.5 °C 3.7 °F /  -15.7 °C 1008.4 in /  34144.4 hPa ESE 1.6 mph /  2.6 km/h 4.8 mph /  7.7 km/h 67 % 0.0 in /  0 mm
19:42 9.4 °F /  -12.6 °C 3.6 °F /  -15.8 °C 1008.4 in /  34144.4 hPa East 3.2 mph /  5.1 km/h 4.8 mph /  7.7 km/h 67 % 0.0 in /  0 mm
19:52 9.3 °F /  -12.6 °C 3.3 °F /  -15.9 °C 1008.4 in /  34144.4 hPa East 1.6 mph /  2.6 km/h 4.8 mph /  7.7 km/h 66 % 0.0 in /  0 mm
19:57 9.3 °F /  -12.6 °C 3.3 °F /  -15.9 °C 1008.4 in /  34144.4 hPa East 3.2 mph /  5.1 km/h 4.8 mph /  7.7 km/h 66 % 0.0 in /  0 mm
20:02 9.3 °F /  -12.6 °C 3.3 °F /  -15.9 °C 1008.4 in /  34144.4 hPa East 3.2 mph /  5.1 km/h 4.8 mph /  7.7 km/h 66 % 0.0 in /  0 mm
20:07 9.2 °F /  -12.7 °C 3.2 °F /  -16 °C 1008.4 in /  34144.4 hPa East 1.6 mph /  2.6 km/h 4.8 mph /  7.7 km/h 66 % 0.0 in /  0 mm
20:12 9.1 °F /  -12.7 °C 3.1 °F /  -16.1 °C 1008.4 in /  34144.4 hPa Calm   4.8 mph /  7.7 km/h 66 % 0.0 in /  0 mm
20:17 8.9 °F /  -12.8 °C 3.1 °F /  -16.1 °C 1008.7 in /  34154.6 hPa Calm   4.8 mph /  7.7 km/h 67 % 0.0 in /  0 mm
20:22 8.7 °F /  -12.9 °C 3.1 °F /  -16.1 °C 1008.7 in /  34154.6 hPa Calm   4.8 mph /  7.7 km/h 68 % 0.0 in /  0 mm
20:32 8.1 °F /  -13.3 °C 3.2 °F /  -16 °C 1008.7 in /  34154.6 hPa Calm   3.2 mph /  5.1 km/h 71 % 0.0 in /  0 mm
20:37 7.9 °F /  -13.4 °C 3.2 °F /  -16 °C 1008.7 in /  34154.6 hPa Calm     72 % 0.0 in /  0 mm
20:42 8.1 °F /  -13.3 °C 3.4 °F /  -15.9 °C 1009.0 in /  34164.7 hPa Calm     72 % 0.0 in /  0 mm
20:47 8.1 °F /  -13.3 °C 3.2 °F /  -16 °C 1009.0 in /  34164.7 hPa Calm   6.4 mph /  10.3 km/h 71 % 0.0 in /  0 mm
20:52 8.1 °F /  -13.3 °C 3.2 °F /  -16 °C 1009.0 in /  34164.7 hPa Calm   6.4 mph /  10.3 km/h 71 % 0.0 in /  0 mm
20:57 7.9 °F /  -13.4 °C 3.2 °F /  -16 °C 1009.0 in /  34164.7 hPa Calm   3.2 mph /  5.1 km/h 72 % 0.0 in /  0 mm
21:02 7.8 °F /  -13.4 °C 3.3 °F /  -15.9 °C 1008.7 in /  34154.6 hPa Calm   3.2 mph /  5.1 km/h 73 % 0.0 in /  0 mm
21:07 7.8 °F /  -13.4 °C 3.6 °F /  -15.8 °C 1008.7 in /  34154.6 hPa Calm   1.6 mph /  2.6 km/h 75 % 0.0 in /  0 mm
21:12 7.8 °F /  -13.4 °C 3.5 °F /  -15.8 °C 1008.7 in /  34154.6 hPa Calm   1.6 mph /  2.6 km/h 74 % 0.0 in /  0 mm
21:17 7.7 °F /  -13.5 °C 3.5 °F /  -15.8 °C 1009.0 in /  34164.7 hPa Calm   3.2 mph /  5.1 km/h 75 % 0.0 in /  0 mm
21:22 7.6 °F /  -13.6 °C 3.6 °F /  -15.8 °C 1009.0 in /  34164.7 hPa Calm   3.2 mph /  5.1 km/h 76 % 0.0 in /  0 mm
21:32 7.7 °F /  -13.5 °C 3.9 °F /  -15.6 °C 1009.0 in /  34164.7 hPa Calm   1.6 mph /  2.6 km/h 77 % 0.0 in /  0 mm
21:42 7.8 °F /  -13.4 °C 3.8 °F /  -15.7 °C 1009.4 in /  34178.3 hPa Calm   1.6 mph /  2.6 km/h 76 % 0.0 in /  0 mm
21:47 7.8 °F /  -13.4 °C 4.0 °F /  -15.6 °C 1009.4 in /  34178.3 hPa Calm   1.6 mph /  2.6 km/h 77 % 0.0 in /  0 mm
21:52 7.8 °F /  -13.4 °C 4.0 °F /  -15.6 °C 1009.4 in /  34178.3 hPa SW 3.2 mph /  5.1 km/h 3.2 mph /  5.1 km/h 77 % 0.0 in /  0 mm
21:57 7.9 °F /  -13.4 °C 4.1 °F /  -15.5 °C 1009.4 in /  34178.3 hPa South 1.6 mph /  2.6 km/h 6.4 mph /  10.3 km/h 77 % 0.0 in /  0 mm
22:07 7.9 °F /  -13.4 °C 4.5 °F /  -15.3 °C 1009.4 in /  34178.3 hPa SSW 1.6 mph /  2.6 km/h 6.4 mph /  10.3 km/h 79 % 0.0 in /  0 mm
22:12 7.8 °F /  -13.4 °C 4.6 °F /  -15.2 °C 1009.4 in /  34178.3 hPa ESE 1.6 mph /  2.6 km/h 6.4 mph /  10.3 km/h 80 % 0.0 in /  0 mm
22:17 7.7 °F /  -13.5 °C 4.5 °F /  -15.3 °C 1009.4 in /  34178.3 hPa Calm   6.4 mph /  10.3 km/h 80 % 0.0 in /  0 mm
22:22 7.7 °F /  -13.5 °C 4.3 °F /  -15.4 °C 1009.4 in /  34178.3 hPa SE 1.6 mph /  2.6 km/h 6.4 mph /  10.3 km/h 79 % 0.0 in /  0 mm
22:32 7.8 °F /  -13.4 °C 4.4 °F /  -15.3 °C 1009.4 in /  34178.3 hPa WSW 9.7 mph /  15.6 km/h 9.7 mph /  15.6 km/h 79 % 0.0 in /  0 mm
22:37 8.0 °F /  -13.3 °C 4.4 °F /  -15.3 °C 1009.4 in /  34178.3 hPa SSE 6.4 mph /  10.3 km/h 11.3 mph /  18.2 km/h 78 % 0.0 in /  0 mm
22:42 8.1 °F /  -13.3 °C 4.5 °F /  -15.3 °C 1009.4 in /  34178.3 hPa SSW 6.4 mph /  10.3 km/h 11.3 mph /  18.2 km/h 78 % 0.0 in /  0 mm
22:52 7.9 °F /  -13.4 °C 4.7 °F /  -15.2 °C 1009.4 in /  34178.3 hPa SW 3.2 mph /  5.1 km/h 11.3 mph /  18.2 km/h 80 % 0.0 in /  0 mm
22:57 7.7 °F /  -13.5 °C 4.6 °F /  -15.2 °C 1009.4 in /  34178.3 hPa SSW 3.2 mph /  5.1 km/h 8.0 mph /  12.9 km/h 81 % 0.0 in /  0 mm
23:02 7.5 °F /  -13.6 °C 4.5 °F /  -15.3 °C 1009.4 in /  34178.3 hPa SSW 1.6 mph /  2.6 km/h 8.0 mph /  12.9 km/h 81 % 0.0 in /  0 mm
23:07 7.3 °F /  -13.7 °C 4.4 °F /  -15.3 °C 1009.4 in /  34178.3 hPa SSW 3.2 mph /  5.1 km/h 6.4 mph /  10.3 km/h 82 % 0.0 in /  0 mm
23:12 7.1 °F /  -13.8 °C 4.2 °F /  -15.4 °C 1009.7 in /  34188.4 hPa SSW 1.6 mph /  2.6 km/h 6.4 mph /  10.3 km/h 82 % 0.0 in /  0 mm
23:17 6.8 °F /  -14 °C 4.1 °F /  -15.5 °C 1009.4 in /  34178.3 hPa Calm   6.4 mph /  10.3 km/h 83 % 0.0 in /  0 mm
23:22 6.8 °F /  -14 °C 4.3 °F /  -15.4 °C 1009.4 in /  34178.3 hPa SSW 4.8 mph /  7.7 km/h 6.4 mph /  10.3 km/h 84 % 0.0 in /  0 mm
23:32 6.9 °F /  -13.9 °C 4.2 °F /  -15.4 °C 1009.4 in /  34178.3 hPa Calm   6.4 mph /  10.3 km/h 83 % 0.0 in /  0 mm
23:42 6.5 °F /  -14.2 °C 4.2 °F /  -15.4 °C 1009.7 in /  34188.4 hPa Calm   4.8 mph /  7.7 km/h 85 % 0.0 in /  0 mm
23:47 6.4 °F /  -14.2 °C 4.2 °F /  -15.4 °C 1009.4 in /  34178.3 hPa Calm   1.6 mph /  2.6 km/h 86 % 0.0 in /  0 mm
23:52 6.5 °F /  -14.2 °C 4.3 °F /  -15.4 °C 1009.4 in /  34178.3 hPa Calm   1.6 mph /  2.6 km/h 86 % 0.0 in /  0 mm
23:57 6.5 °F /  -14.2 °C 4.5 °F /  -15.3 °C 1009.4 in /  34178.3 hPa Calm   1.6 mph /  2.6 km/h 87 % 0.0 in /  0 mm
Meteo18
Compliments of Weather Underground - 4 mb

Script developed by  Jim McMurry - jmcmurry@mwt.net Adapted for the template by  Wim van der Kuil - Leuven-Template.eu

You find our weather info also at:

European Weather Network

Weather Underground

Equipment we use:

Weather-station
Davis Vue

Weather-program
Meteobridge

Weather-server
Raspberry PI 2 B+

Provider
1 and 1

Davis Vue

Meteobridge

Raspberry PI 2 B+

1 and 1